createdAt,value
2023-05-16T00:00:38.747Z,8.93
2023-05-16T00:03:06.441Z,9.52
2023-05-16T00:05:33.408Z,11.48
2023-05-16T00:08:00.200Z,9.20
2023-05-16T00:10:27.211Z,13.38
2023-05-16T00:12:54.629Z,8.48
2023-05-16T00:15:23.243Z,7.10
2023-05-16T00:17:50.181Z,9.25
2023-05-16T00:20:23.040Z,8.07
2023-05-16T00:22:50.032Z,9.82
2023-05-16T00:25:16.841Z,7.80
2023-05-16T00:27:43.626Z,10.80
2023-05-16T00:30:10.773Z,10.05
2023-05-16T00:32:37.718Z,11.05
2023-05-16T00:35:04.998Z,10.57
2023-05-16T00:37:31.887Z,13.52
2023-05-16T00:39:58.677Z,13.20
2023-05-16T00:42:25.465Z,10.15
2023-05-16T00:44:52.241Z,10.38
2023-05-16T00:47:18.996Z,12.15
2023-05-16T00:49:45.905Z,15.48
2023-05-16T00:52:12.687Z,11.45
2023-05-16T00:54:39.512Z,9.73
2023-05-16T00:57:06.874Z,14.05
2023-05-16T00:59:34.068Z,13.85
2023-05-16T01:02:01.098Z,9.65
2023-05-16T01:04:28.459Z,11.52
2023-05-16T01:06:56.854Z,12.55
2023-05-16T01:09:23.968Z,15.50
2023-05-16T01:11:57.381Z,10.85
2023-05-16T01:14:35.024Z,12.95
2023-05-16T01:17:04.900Z,10.13
2023-05-16T01:19:52.899Z,12.68
2023-05-16T01:22:37.562Z,12.38
2023-05-16T01:25:36.526Z,17.77
2023-05-16T01:28:07.743Z,19.75
2023-05-16T01:30:38.124Z,13.55
2023-05-16T01:33:08.232Z,11.82
2023-05-16T01:35:54.355Z,10.55
2023-05-16T01:38:26.635Z,14.13
2023-05-16T01:41:24.826Z,11.48
2023-05-16T01:43:56.069Z,15.68
2023-05-16T01:46:30.993Z,11.55
2023-05-16T01:49:19.429Z,10.70
2023-05-16T01:51:52.174Z,11.30
2023-05-16T01:54:20.046Z,11.50
2023-05-16T01:56:55.361Z,11.95
2023-05-16T01:59:24.834Z,10.05
2023-05-16T02:01:55.184Z,10.38
2023-05-16T02:04:22.364Z,12.95
2023-05-16T02:06:49.592Z,9.80
2023-05-16T02:09:16.592Z,14.00
2023-05-16T02:11:43.564Z,10.95
2023-05-16T02:14:10.383Z,12.40
2023-05-16T02:16:38.791Z,9.65
2023-05-16T02:19:06.025Z,8.68
2023-05-16T02:21:32.940Z,9.88
2023-05-16T02:23:59.728Z,10.25
2023-05-16T02:26:26.479Z,11.85
2023-05-16T02:28:54.312Z,11.68
2023-05-16T02:31:32.239Z,10.50
2023-05-16T02:34:00.831Z,11.45
2023-05-16T02:36:28.180Z,9.93
2023-05-16T02:38:55.318Z,14.63
2023-05-16T02:41:22.345Z,11.10
2023-05-16T02:43:49.483Z,11.90
2023-05-16T02:46:33.336Z,14.05
2023-05-16T02:49:01.485Z,11.13
2023-05-16T02:51:28.951Z,9.00
2023-05-16T02:54:00.589Z,9.10
2023-05-16T02:56:27.759Z,9.68
2023-05-16T02:58:55.453Z,11.10
2023-05-16T03:01:22.460Z,12.13
2023-05-16T03:03:49.451Z,11.88
2023-05-16T03:06:16.343Z,12.27
2023-05-16T03:08:43.181Z,12.88
2023-05-16T03:11:09.937Z,18.40
2023-05-16T03:13:36.860Z,26.58
2023-05-16T03:16:04.788Z,16.15
2023-05-16T03:18:31.744Z,14.77
2023-05-16T03:20:58.654Z,16.67
2023-05-16T03:23:25.624Z,15.32
2023-05-16T03:25:52.609Z,13.13
2023-05-16T03:28:19.435Z,13.88
2023-05-16T03:30:46.288Z,14.05
2023-05-16T03:33:13.165Z,14.82
2023-05-16T03:35:40.391Z,13.98
2023-05-16T03:38:07.475Z,12.90
2023-05-16T03:40:34.274Z,20.27
2023-05-16T03:43:01.113Z,15.77
2023-05-16T03:45:28.192Z,21.77
2023-05-16T03:47:55.575Z,17.92
2023-05-16T03:50:22.454Z,18.17
2023-05-16T03:52:49.211Z,21.05
2023-05-16T03:55:16.498Z,20.60
2023-05-16T03:57:43.824Z,16.63
2023-05-16T04:00:12.545Z,17.02
2023-05-16T04:02:43.963Z,14.70
2023-05-16T04:05:12.229Z,16.33
2023-05-16T04:07:39.261Z,17.38
2023-05-16T04:10:06.589Z,15.93
2023-05-16T04:12:33.658Z,13.40
2023-05-16T04:15:00.440Z,14.48
2023-05-16T04:17:27.370Z,13.38
2023-05-16T04:19:54.237Z,15.75
2023-05-16T04:22:23.859Z,15.70
2023-05-16T04:24:50.934Z,14.13
2023-05-16T04:27:17.809Z,13.68
2023-05-16T04:29:44.906Z,20.70
2023-05-16T04:32:12.442Z,15.25
2023-05-16T04:34:40.350Z,13.90
2023-05-16T04:37:08.471Z,14.93
2023-05-16T04:39:36.648Z,17.52
2023-05-16T04:42:04.398Z,15.38
2023-05-16T04:44:31.678Z,13.70
2023-05-16T04:46:58.665Z,12.30
2023-05-16T04:49:25.560Z,15.35
2023-05-16T04:51:52.499Z,20.33
2023-05-16T04:54:19.316Z,18.42
2023-05-16T04:56:46.126Z,15.90
2023-05-16T04:59:12.992Z,16.35
2023-05-16T05:01:40.049Z,15.50
2023-05-16T05:04:06.974Z,18.70
2023-05-16T05:06:33.855Z,17.48
2023-05-16T05:09:00.887Z,14.75
2023-05-16T05:11:27.699Z,18.58
2023-05-16T05:13:54.526Z,14.98
2023-05-16T05:16:21.399Z,18.73
2023-05-16T05:18:48.314Z,15.80
2023-05-16T05:21:15.195Z,16.38
2023-05-16T05:23:41.982Z,17.75
2023-05-16T05:26:09.062Z,22.33
2023-05-16T05:28:37.685Z,28.58
2023-05-16T05:31:05.534Z,32.40
2023-05-16T05:33:32.338Z,18.52
2023-05-16T05:35:59.278Z,16.33
2023-05-16T05:38:26.385Z,15.13
2023-05-16T05:40:53.193Z,15.10
2023-05-16T05:43:20.061Z,13.07
2023-05-16T05:45:46.932Z,13.57
2023-05-16T05:48:14.080Z,14.25
2023-05-16T05:50:41.049Z,13.43
2023-05-16T05:53:07.980Z,13.70
2023-05-16T05:55:34.847Z,13.73
2023-05-16T05:58:01.762Z,15.15
2023-05-16T06:00:29.441Z,13.00
2023-05-16T06:02:56.691Z,11.25
2023-05-16T06:05:23.976Z,14.13
2023-05-16T06:07:50.881Z,14.00
2023-05-16T06:10:17.679Z,14.38
2023-05-16T06:12:44.464Z,13.15
2023-05-16T06:15:11.610Z,13.93
2023-05-16T06:17:39.104Z,12.80
2023-05-16T06:20:06.658Z,14.25
2023-05-16T06:22:33.444Z,14.15
2023-05-16T06:25:00.387Z,13.68
2023-05-16T06:27:27.327Z,15.40
2023-05-16T06:29:54.236Z,12.50
2023-05-16T06:32:21.102Z,13.07
2023-05-16T06:34:48.997Z,12.13
2023-05-16T06:37:15.794Z,12.25
2023-05-16T06:39:42.601Z,12.57
2023-05-16T06:42:09.440Z,11.77
2023-05-16T06:44:36.324Z,11.30
2023-05-16T06:47:03.618Z,11.70
2023-05-16T06:49:30.736Z,11.52
2023-05-16T06:51:57.588Z,13.10
2023-05-16T06:54:24.407Z,10.65
2023-05-16T06:56:51.409Z,13.50
2023-05-16T06:59:18.244Z,12.00
2023-05-16T07:01:45.178Z,12.02
2023-05-16T07:04:12.404Z,10.60
2023-05-16T07:06:39.362Z,11.23
2023-05-16T07:09:06.367Z,11.55
2023-05-16T07:11:33.196Z,10.10
2023-05-16T07:14:00.050Z,11.02
2023-05-16T07:16:28.663Z,11.20
2023-05-16T07:18:55.920Z,10.20
2023-05-16T07:21:22.817Z,8.88
2023-05-16T07:23:49.630Z,9.45
2023-05-16T07:26:16.868Z,11.13
2023-05-16T07:28:43.705Z,10.10
2023-05-16T07:31:11.218Z,10.98
2023-05-16T07:33:38.037Z,11.13
2023-05-16T07:36:15.970Z,10.77
2023-05-16T07:38:45.520Z,9.63
2023-05-16T07:41:12.669Z,11.05
2023-05-16T07:43:39.598Z,9.52
2023-05-16T07:46:06.563Z,10.27
2023-05-16T07:48:33.548Z,12.00
2023-05-16T07:51:00.419Z,10.73
2023-05-16T07:53:27.233Z,10.43
2023-05-16T07:55:54.215Z,11.23
2023-05-16T07:58:21.659Z,10.27
2023-05-16T08:00:48.664Z,9.50
2023-05-16T08:03:15.784Z,11.48
2023-05-16T08:05:43.085Z,8.57
2023-05-16T08:08:10.309Z,8.65
2023-05-16T08:10:37.173Z,11.07
2023-05-16T08:13:04.359Z,10.20
2023-05-16T08:15:31.239Z,10.55
2023-05-16T08:17:59.075Z,7.88
2023-05-16T08:20:27.484Z,10.05
2023-05-16T08:22:55.142Z,9.52
2023-05-16T08:25:22.081Z,11.77
2023-05-16T08:27:50.300Z,10.35
2023-05-16T08:30:17.449Z,8.02
2023-05-16T08:32:44.967Z,10.10
2023-05-16T08:35:13.270Z,8.02
2023-05-16T08:37:40.372Z,8.27
2023-05-16T08:40:10.841Z,8.73
2023-05-16T08:42:38.535Z,8.40
2023-05-16T08:45:06.943Z,8.43
2023-05-16T08:47:36.829Z,10.40
2023-05-16T08:50:05.368Z,8.20
2023-05-16T08:52:36.575Z,8.35
2023-05-16T08:55:11.984Z,10.07
2023-05-16T08:57:39.635Z,9.27
2023-05-16T09:00:13.562Z,11.90
2023-05-16T09:02:46.936Z,8.55
2023-05-16T09:07:45.745Z,10.43
2023-05-16T09:10:13.202Z,9.18
2023-05-16T09:12:41.866Z,10.63
2023-05-16T09:15:10.683Z,7.05
2023-05-16T09:17:41.342Z,10.18
2023-05-16T09:20:09.896Z,10.63
2023-05-16T09:22:37.300Z,9.45
2023-05-16T09:25:12.669Z,12.57
2023-05-16T09:27:56.684Z,9.38
2023-05-16T09:30:28.146Z,8.90
2023-05-16T09:32:55.047Z,11.98
2023-05-16T09:35:39.098Z,11.27
2023-05-16T09:38:17.917Z,12.73
2023-05-16T09:40:45.439Z,11.70
2023-05-16T09:43:16.233Z,13.48
2023-05-16T09:45:48.019Z,11.48
2023-05-16T09:48:16.007Z,14.00
2023-05-16T09:50:49.766Z,16.63
2023-05-16T09:55:43.944Z,14.98
2023-05-16T09:58:10.947Z,11.98
2023-05-16T10:00:38.092Z,22.52
2023-05-16T10:03:06.205Z,13.13
2023-05-16T10:05:35.621Z,15.98
2023-05-16T10:08:03.945Z,17.98
2023-05-16T10:10:34.842Z,21.58
2023-05-16T10:13:04.377Z,23.27
2023-05-16T10:15:32.101Z,20.60
2023-05-16T10:18:00.639Z,21.80
2023-05-16T10:20:27.717Z,17.02
2023-05-16T10:22:56.946Z,19.45
2023-05-16T10:25:36.524Z,19.60
2023-05-16T10:28:04.202Z,17.13
2023-05-16T10:30:34.027Z,17.13
2023-05-16T10:33:02.554Z,19.95
2023-05-16T10:35:32.790Z,13.70
2023-05-16T10:38:00.786Z,13.48
2023-05-16T10:40:29.421Z,13.55
2023-05-16T10:43:01.546Z,14.77
2023-05-16T10:45:28.967Z,12.93
2023-05-16T10:48:01.720Z,12.55
2023-05-16T10:50:42.955Z,15.60
2023-05-16T10:53:18.296Z,14.57
2023-05-16T10:56:09.217Z,13.60
2023-05-16T10:58:39.057Z,18.58
2023-05-16T11:01:32.688Z,14.82
2023-05-16T11:04:02.955Z,16.02
2023-05-16T11:06:34.203Z,15.13
2023-05-16T11:09:05.634Z,14.98
2023-05-16T11:11:49.640Z,16.42
2023-05-16T11:14:34.813Z,16.30
2023-05-16T11:17:09.426Z,18.33
2023-05-16T11:19:43.275Z,23.58
2023-05-16T11:22:20.881Z,23.80
2023-05-16T11:25:08.802Z,18.80
2023-05-16T11:27:36.642Z,17.45
2023-05-16T11:30:06.371Z,16.80
2023-05-16T11:32:40.242Z,17.75
2023-05-16T11:35:10.618Z,15.98
2023-05-16T11:37:42.203Z,16.23
2023-05-16T11:40:14.569Z,17.17
2023-05-16T11:42:47.620Z,14.97
2023-05-16T11:45:24.604Z,13.43
2023-05-16T11:47:51.710Z,14.60
2023-05-16T11:50:21.098Z,13.07
2023-05-16T11:52:53.878Z,11.57
2023-05-16T11:55:39.334Z,12.80
2023-05-16T11:58:08.000Z,14.15
2023-05-16T12:00:34.937Z,14.23
2023-05-16T12:03:05.252Z,15.18
2023-05-16T12:05:34.302Z,11.93
2023-05-16T12:08:02.727Z,13.57
2023-05-16T12:10:33.676Z,12.60
2023-05-16T12:13:00.613Z,13.18
2023-05-16T12:15:28.507Z,12.52
2023-05-16T12:17:56.914Z,16.25
2023-05-16T12:20:26.073Z,13.40
2023-05-16T12:22:53.258Z,13.27
2023-05-16T12:25:24.217Z,13.57
2023-05-16T12:27:52.715Z,16.70
2023-05-16T12:30:21.631Z,14.18
2023-05-16T12:33:09.341Z,14.70
2023-05-16T12:35:39.452Z,13.55
2023-05-16T12:38:12.268Z,15.23
2023-05-16T12:40:42.515Z,15.27
2023-05-16T12:43:15.588Z,16.45
2023-05-16T12:48:16.944Z,20.73
2023-05-16T12:50:45.688Z,21.35
2023-05-16T12:53:14.444Z,15.32
2023-05-16T12:55:42.195Z,16.50
2023-05-16T12:58:10.430Z,15.30
2023-05-16T13:00:37.875Z,13.40
2023-05-16T13:03:05.742Z,10.05
2023-05-16T13:05:32.810Z,11.30
2023-05-16T13:07:59.667Z,12.52
2023-05-16T13:10:27.073Z,8.82
2023-05-16T13:12:54.143Z,10.60
2023-05-16T13:15:21.125Z,10.48
2023-05-16T13:17:48.606Z,12.20
2023-05-16T13:20:15.857Z,9.50
2023-05-16T13:22:44.773Z,8.43
2023-05-16T13:25:12.231Z,12.68
2023-05-16T13:27:39.199Z,10.73
2023-05-16T13:30:07.353Z,12.15
2023-05-16T13:32:34.564Z,16.25
2023-05-16T13:35:01.529Z,16.15
2023-05-16T13:37:30.130Z,11.43
2023-05-16T13:39:57.078Z,15.50
2023-05-16T13:42:23.951Z,12.45
2023-05-16T13:44:51.535Z,17.45
2023-05-16T13:47:18.694Z,17.83
2023-05-16T13:49:45.843Z,17.40
2023-05-16T13:52:12.758Z,16.73
2023-05-16T13:54:41.491Z,15.77
2023-05-16T13:57:08.642Z,17.02
2023-05-16T13:59:56.804Z,13.88
2023-05-16T14:02:22.751Z,12.93
2023-05-16T14:04:50.020Z,13.45
2023-05-16T14:07:17.174Z,11.77
2023-05-16T14:09:45.168Z,11.40
2023-05-16T14:12:12.020Z,11.73
2023-05-16T14:14:39.088Z,11.15
2023-05-16T14:17:06.760Z,10.32
2023-05-16T14:19:34.499Z,11.30
2023-05-16T14:22:01.442Z,12.23
2023-05-16T14:24:28.453Z,14.10
2023-05-16T14:26:55.461Z,11.88
2023-05-16T14:29:22.679Z,10.95
2023-05-16T14:31:49.802Z,10.80
2023-05-16T14:34:16.699Z,12.35
2023-05-16T14:36:43.788Z,12.77
2023-05-16T14:39:10.816Z,10.73
2023-05-16T14:41:37.680Z,14.60
2023-05-16T14:44:04.773Z,11.48
2023-05-16T14:46:31.709Z,13.00
2023-05-16T14:48:58.562Z,9.48
2023-05-16T14:51:26.463Z,9.43
2023-05-16T14:53:53.294Z,10.02
2023-05-16T14:56:20.124Z,10.55
2023-05-16T14:58:46.912Z,12.05
2023-05-16T15:01:15.235Z,12.82
2023-05-16T15:06:11.987Z,13.18
2023-05-16T15:08:38.828Z,17.48
2023-05-16T15:11:05.752Z,16.17
2023-05-16T15:13:32.590Z,14.85
2023-05-16T15:15:59.474Z,16.45
2023-05-16T15:18:26.306Z,19.65
2023-05-16T15:20:53.282Z,16.85
2023-05-16T15:23:20.130Z,17.10
2023-05-16T15:25:46.981Z,17.08
2023-05-16T15:28:13.832Z,16.70
2023-05-16T15:30:40.778Z,15.75
2023-05-16T15:33:07.756Z,14.65
2023-05-16T15:35:34.762Z,14.75
2023-05-16T15:38:01.668Z,14.68
2023-05-16T15:40:28.856Z,12.80
2023-05-16T15:42:55.969Z,12.85
2023-05-16T15:45:22.803Z,12.80
2023-05-16T15:47:49.700Z,12.93
2023-05-16T15:50:16.695Z,11.75
2023-05-16T15:52:43.580Z,11.75
2023-05-16T15:55:11.958Z,13.50
2023-05-16T15:57:38.875Z,11.73
2023-05-16T16:00:06.480Z,12.52
2023-05-16T16:02:33.933Z,12.43
2023-05-16T16:05:00.838Z,10.93
2023-05-16T16:07:27.729Z,12.45
2023-05-16T16:09:54.632Z,12.68
2023-05-16T16:12:22.585Z,11.18
2023-05-16T16:14:49.548Z,12.05
2023-05-16T16:17:16.681Z,9.55
2023-05-16T16:19:43.613Z,10.40
2023-05-16T16:22:10.442Z,13.82
2023-05-16T16:24:37.269Z,9.32
2023-05-16T16:27:04.478Z,9.65
2023-05-16T16:29:31.576Z,10.00
2023-05-16T16:31:58.888Z,10.70
2023-05-16T16:34:25.870Z,10.43
2023-05-16T16:36:52.721Z,10.70
2023-05-16T16:39:19.932Z,12.25
2023-05-16T16:41:46.755Z,10.10
2023-05-16T16:44:13.684Z,10.23
2023-05-16T16:46:40.899Z,10.50
2023-05-16T16:49:07.820Z,9.73
2023-05-16T16:51:35.192Z,8.35
2023-05-16T16:54:02.269Z,10.48
2023-05-16T16:56:30.070Z,10.02
2023-05-16T16:58:56.953Z,10.77
2023-05-16T17:01:23.978Z,13.27
2023-05-16T17:03:50.973Z,11.40
2023-05-16T17:06:17.802Z,12.77
2023-05-16T17:08:45.435Z,10.48
2023-05-16T17:11:12.348Z,10.40
2023-05-16T17:13:41.841Z,10.07
2023-05-16T17:16:10.134Z,9.88
2023-05-16T17:18:37.137Z,10.20
2023-05-16T17:21:04.108Z,11.95
2023-05-16T17:23:31.035Z,8.73
2023-05-16T17:25:57.906Z,11.48
2023-05-16T17:28:25.911Z,9.57
2023-05-16T17:30:52.825Z,8.68
2023-05-16T17:33:19.704Z,9.68
2023-05-16T17:35:47.426Z,9.07
2023-05-16T17:38:14.319Z,9.73
2023-05-16T17:40:41.218Z,8.93
2023-05-16T17:43:08.029Z,6.95
2023-05-16T17:45:34.877Z,9.55
2023-05-16T17:48:02.211Z,8.27
2023-05-16T17:50:30.100Z,7.60
2023-05-16T17:52:57.351Z,9.55
2023-05-16T17:55:24.653Z,15.18
2023-05-16T17:57:51.820Z,6.68
2023-05-16T18:00:19.052Z,6.82
2023-05-16T18:02:45.925Z,6.85
2023-05-16T18:05:13.902Z,7.38
2023-05-16T18:07:41.018Z,7.05
2023-05-16T18:10:08.869Z,8.80
2023-05-16T18:12:36.284Z,6.90
2023-05-16T18:15:04.434Z,6.15
2023-05-16T18:17:33.980Z,7.90
2023-05-16T18:20:08.988Z,6.43
2023-05-16T18:22:40.226Z,8.48
2023-05-16T18:25:09.610Z,7.03
2023-05-16T18:27:37.764Z,6.68
2023-05-16T18:30:05.730Z,6.78
2023-05-16T18:32:33.201Z,6.32
2023-05-16T18:35:00.085Z,7.47
2023-05-16T18:37:27.042Z,8.45
2023-05-16T18:39:54.015Z,8.52
2023-05-16T18:42:21.052Z,6.40
2023-05-16T18:44:47.852Z,7.85
2023-05-16T18:47:15.773Z,7.20
2023-05-16T18:49:44.036Z,10.07
2023-05-16T18:52:11.507Z,6.78
2023-05-16T18:54:39.108Z,9.18
2023-05-16T18:57:07.728Z,7.15
2023-05-16T18:59:35.189Z,7.15
2023-05-16T19:02:02.274Z,7.60
2023-05-16T19:04:29.868Z,6.25
2023-05-16T19:06:58.040Z,6.95
2023-05-16T19:09:25.221Z,5.25
2023-05-16T19:11:52.348Z,4.15
2023-05-16T19:14:19.264Z,7.32
2023-05-16T19:16:46.362Z,6.35
2023-05-16T19:19:13.339Z,5.53
2023-05-16T19:21:40.420Z,5.80
2023-05-16T19:24:08.324Z,5.55
2023-05-16T19:26:35.367Z,5.47
2023-05-16T19:29:02.613Z,5.32
2023-05-16T19:31:29.732Z,6.70
2023-05-16T19:33:56.684Z,6.18
2023-05-16T19:36:23.855Z,8.45
2023-05-16T19:38:50.767Z,5.75
2023-05-16T19:41:17.741Z,7.70
2023-05-16T19:43:44.652Z,7.50
2023-05-16T19:46:11.521Z,7.80
2023-05-16T19:48:38.481Z,7.80
2023-05-16T19:51:05.395Z,4.88
2023-05-16T19:53:32.273Z,6.47
2023-05-16T19:55:59.341Z,7.63
2023-05-16T19:58:26.522Z,4.35
2023-05-16T20:00:56.069Z,6.45
2023-05-16T20:03:23.964Z,5.80
2023-05-16T20:05:51.173Z,8.18
2023-05-16T20:08:18.043Z,10.25
2023-05-16T20:10:45.016Z,6.63
2023-05-16T20:13:11.902Z,6.50
2023-05-16T20:15:38.757Z,6.47
2023-05-16T20:18:06.435Z,5.95
2023-05-16T20:20:33.389Z,8.82
2023-05-16T20:23:00.211Z,6.85
2023-05-16T20:25:27.609Z,7.53
2023-05-16T20:27:54.763Z,7.82
2023-05-16T20:30:22.027Z,5.50
2023-05-16T20:32:50.598Z,6.40
2023-05-16T20:35:17.450Z,11.23
2023-05-16T20:37:44.663Z,7.53
2023-05-16T20:40:11.825Z,8.23
2023-05-16T20:42:38.726Z,5.55
2023-05-16T20:45:06.427Z,7.40
2023-05-16T20:47:33.332Z,6.13
2023-05-16T20:50:00.169Z,6.95
2023-05-16T20:52:27.931Z,8.38
2023-05-16T20:54:54.775Z,8.07
2023-05-16T20:57:21.710Z,7.00
2023-05-16T20:59:48.609Z,10.20
2023-05-16T21:02:15.622Z,7.15
2023-05-16T21:04:42.514Z,5.78
2023-05-16T21:07:11.294Z,6.95
2023-05-16T21:09:39.703Z,6.15
2023-05-16T21:12:06.941Z,6.57
2023-05-16T21:14:33.760Z,7.88
2023-05-16T21:17:00.682Z,10.60
2023-05-16T21:19:27.813Z,8.20
2023-05-16T21:21:54.979Z,11.32
2023-05-16T21:24:21.923Z,8.35
2023-05-16T21:26:48.750Z,7.55
2023-05-16T21:29:15.589Z,6.80
2023-05-16T21:31:42.437Z,8.45
2023-05-16T21:34:09.712Z,9.07
2023-05-16T21:36:36.707Z,8.82
2023-05-16T21:39:03.571Z,6.30
2023-05-16T21:41:30.413Z,7.50
2023-05-16T21:43:57.232Z,8.43
2023-05-16T21:46:24.118Z,9.70
2023-05-16T21:48:51.103Z,7.95
2023-05-16T21:51:19.190Z,8.27
2023-05-16T21:53:48.695Z,9.98
2023-05-16T21:56:15.537Z,6.15
2023-05-16T21:58:42.507Z,7.78
2023-05-16T22:01:09.685Z,13.35
2023-05-16T22:03:36.629Z,9.45
2023-05-16T22:06:03.640Z,7.63
2023-05-16T22:08:30.541Z,8.05
2023-05-16T22:10:57.572Z,6.22
2023-05-16T22:13:24.769Z,7.40
2023-05-16T22:16:03.491Z,5.50
2023-05-16T22:18:32.890Z,6.63
2023-05-16T22:21:00.278Z,4.93
2023-05-16T22:23:27.191Z,9.38
2023-05-16T22:25:54.022Z,8.23
2023-05-16T22:28:21.153Z,9.20
2023-05-16T22:30:47.967Z,7.25
2023-05-16T22:33:14.838Z,6.03
2023-05-16T22:35:41.726Z,9.38
2023-05-16T22:38:08.566Z,8.70
2023-05-16T22:40:35.495Z,9.98
2023-05-16T22:43:02.358Z,3.95
2023-05-16T22:45:29.443Z,8.02
2023-05-16T22:47:56.542Z,8.68
2023-05-16T22:50:23.522Z,7.78
2023-05-16T22:52:50.425Z,8.13
2023-05-16T22:55:17.294Z,9.63
2023-05-16T22:57:44.496Z,5.35
2023-05-16T23:00:11.820Z,6.15
2023-05-16T23:02:38.875Z,7.95
2023-05-16T23:05:06.379Z,6.85
2023-05-16T23:07:33.234Z,8.00
2023-05-16T23:10:00.077Z,7.70
2023-05-16T23:12:26.959Z,8.88
2023-05-16T23:14:53.827Z,7.40
2023-05-16T23:17:20.954Z,6.18
2023-05-16T23:19:47.826Z,8.55
2023-05-16T23:22:14.920Z,7.80
2023-05-16T23:24:41.801Z,8.40
2023-05-16T23:27:08.682Z,7.88
2023-05-16T23:29:35.620Z,8.65
2023-05-16T23:32:02.509Z,9.70
2023-05-16T23:34:29.692Z,9.10
2023-05-16T23:36:56.502Z,6.63
2023-05-16T23:39:23.326Z,11.23
2023-05-16T23:41:50.164Z,5.60
2023-05-16T23:44:16.981Z,7.40
2023-05-16T23:46:43.832Z,5.53
2023-05-16T23:49:10.744Z,6.93
2023-05-16T23:51:55.431Z,7.75
2023-05-16T23:54:23.794Z,6.97
2023-05-16T23:56:51.030Z,6.40
2023-05-16T23:59:19.179Z,6.53
